Time;durP1;ratioP1;P1;durP2;ratioP2;P2;SDS_P1;SDS_P2;PMS_P1;PMS_P2;Temp;Humidity;BMP_temperature;BMP_pressure;BME280_temperature;BME280_humidity;BME280_pressure;Samples;Min_cycle;Max_cycle;Signal;HPM_P1;HPM_P2
2023/04/22 00:01:16;;;;;;;4.15;3.13;;;15.70;96.70;;;;;;4963779;28;20130;-71
2023/04/22 00:03:45;;;;;;;5.03;3.60;;;15.70;96.70;;;;;;4960770;28;20109;-71
2023/04/22 00:06:13;;;;;;;5.55;3.55;;;15.70;96.70;;;;;;4962860;28;20059;-71
2023/04/22 00:08:42;;;;;;;4.10;3.47;;;15.60;96.70;;;;;;4961921;28;20141;-71
2023/04/22 00:11:10;;;;;;;4.65;3.50;;;15.60;96.70;;;;;;4947952;28;20074;-70
2023/04/22 00:13:37;;;;;;;3.95;3.28;;;15.60;96.70;;;;;;4962860;28;20039;-71
2023/04/22 00:16:06;;;;;;;5.28;3.28;;;15.60;96.70;;;;;;4963563;28;20386;-71
2023/04/22 00:18:35;;;;;;;4.53;3.40;;;15.70;96.70;;;;;;4962205;28;20042;-70
2023/04/22 00:21:05;;;;;;;5.15;3.58;;;15.60;96.70;;;;;;4962883;28;20072;-71
2023/04/22 00:23:33;;;;;;;3.33;2.90;;;15.60;96.70;;;;;;4961720;28;20170;-71
2023/04/22 00:26:01;;;;;;;3.75;3.30;;;15.40;96.70;;;;;;4962886;28;20031;-71
2023/04/22 00:28:29;;;;;;;4.18;3.33;;;15.50;96.70;;;;;;4962130;28;20050;-71
2023/04/22 00:30:57;;;;;;;3.38;3.08;;;15.60;96.70;;;;;;4962205;28;20045;-71
2023/04/22 00:33:25;;;;;;;3.50;2.85;;;15.60;96.70;;;;;;4963251;28;20039;-70
2023/04/22 00:35:53;;;;;;;4.10;2.95;;;15.50;96.70;;;;;;4962278;28;20050;-70
2023/04/22 00:38:23;;;;;;;4.05;2.97;;;15.50;96.70;;;;;;4961102;28;20417;-70
2023/04/22 00:40:51;;;;;;;3.55;3.13;;;15.50;96.70;;;;;;4963246;28;20046;-70
2023/04/22 00:43:19;;;;;;;3.42;2.78;;;15.50;96.70;;;;;;4961668;28;20047;-71
2023/04/22 00:45:49;;;;;;;3.67;3.10;;;15.40;96.70;;;;;;4954423;28;20055;-69
2023/04/22 00:48:17;;;;;;;4.55;3.05;;;15.40;96.70;;;;;;4961030;28;20511;-68
2023/04/22 00:50:45;;;;;;;3.65;2.97;;;15.30;96.70;;;;;;4964396;28;20084;-71
2023/04/22 00:53:12;;;;;;;3.90;2.65;;;15.30;96.70;;;;;;4961345;28;20038;-71
2023/04/22 00:55:42;;;;;;;4.38;3.28;;;15.40;96.70;;;;;;4945174;28;20058;-71
2023/04/22 00:58:10;;;;;;;4.00;2.92;;;15.40;96.70;;;;;;4962976;28;20042;-71
2023/04/22 01:00:38;;;;;;;5.00;3.05;;;15.40;96.70;;;;;;4961347;28;20042;-71
2023/04/22 01:03:07;;;;;;;3.00;2.67;;;15.30;96.70;;;;;;4962198;28;20778;-71
2023/04/22 01:05:36;;;;;;;4.38;3.00;;;15.10;96.70;;;;;;4962710;28;20113;-71
2023/04/22 01:08:03;;;;;;;3.38;2.70;;;15.00;96.70;;;;;;4960442;28;20153;-71
2023/04/22 01:10:31;;;;;;;3.25;2.70;;;15.00;96.70;;;;;;4961311;28;20455;-71
2023/04/22 01:13:00;;;;;;;2.95;2.65;;;15.00;96.70;;;;;;4946124;28;20042;-71
2023/04/22 01:15:28;;;;;;;5.05;3.17;;;15.10;96.70;;;;;;4962766;28;20050;-71
2023/04/22 01:17:58;;;;;;;3.13;2.67;;;15.20;96.70;;;;;;4946123;28;20400;-71
2023/04/22 01:20:28;;;;;;;3.80;2.97;;;15.20;96.70;;;;;;4962433;28;20043;-71
2023/04/22 01:23:01;;;;;;;2.90;2.42;;;15.10;96.70;;;;;;4959188;28;20069;-72
2023/04/22 01:25:31;;;;;;;4.18;3.10;;;15.10;96.70;;;;;;4952281;28;20150;-71
2023/04/22 01:27:59;;;;;;;5.63;2.88;;;15.10;96.70;;;;;;4962091;28;20452;-72
2023/04/22 01:30:27;;;;;;;3.10;2.80;;;15.00;96.70;;;;;;4964528;28;20125;-71
2023/04/22 01:32:55;;;;;;;3.50;3.20;;;15.10;96.70;;;;;;4964848;28;20054;-71
2023/04/22 01:35:23;;;;;;;3.25;2.95;;;15.00;96.70;;;;;;4967438;28;20511;-70
2023/04/22 01:37:51;;;;;;;3.97;2.90;;;14.90;96.70;;;;;;4964166;28;20057;-70
2023/04/22 01:40:21;;;;;;;4.13;2.83;;;14.80;96.70;;;;;;4969727;28;20047;-70
2023/04/22 01:42:50;;;;;;;4.00;3.08;;;14.80;96.70;;;;;;4961431;28;20051;-69
2023/04/22 01:45:19;;;;;;;3.00;2.67;;;14.80;96.70;;;;;;4966617;28;20038;-69
2023/04/22 01:47:47;;;;;;;3.90;3.22;;;14.70;96.70;;;;;;4965072;28;20051;-70
2023/04/22 01:50:14;;;;;;;4.68;3.00;;;14.70;96.70;;;;;;4965138;28;20039;-70
2023/04/22 01:52:42;;;;;;;4.13;3.00;;;14.70;96.70;;;;;;4966498;28;20101;-70
2023/04/22 01:55:10;;;;;;;2.80;2.25;;;14.80;96.70;;;;;;4981078;28;20050;-68
2023/04/22 01:57:38;;;;;;;5.88;2.85;;;14.80;96.70;;;;;;4960751;28;20061;-69
2023/04/22 02:00:09;;;;;;;4.60;2.75;;;14.60;96.70;;;;;;4959988;28;20142;-70
2023/04/22 02:02:39;;;;;;;3.05;2.70;;;14.70;96.70;;;;;;4965030;28;20218;-69
2023/04/22 02:05:08;;;;;;;3.42;3.00;;;14.80;96.70;;;;;;4965542;28;20173;-69
2023/04/22 02:07:36;;;;;;;3.88;3.00;;;14.70;96.70;;;;;;4965736;28;20431;-70
2023/04/22 02:10:04;;;;;;;4.78;3.38;;;14.70;96.70;;;;;;4966133;28;20057;-70
2023/04/22 02:12:32;;;;;;;3.88;3.25;;;14.80;96.70;;;;;;4965442;28;20031;-70
2023/04/22 02:15:00;;;;;;;3.95;3.03;;;14.70;96.70;;;;;;4948565;28;20162;-70
2023/04/22 02:17:29;;;;;;;4.25;3.58;;;14.50;96.70;;;;;;4965101;28;20034;-70
2023/04/22 02:19:57;;;;;;;3.38;3.00;;;14.50;96.70;;;;;;4966052;28;20071;-69
2023/04/22 02:22:27;;;;;;;3.95;2.88;;;14.50;96.70;;;;;;4964124;28;20509;-69
2023/04/22 02:24:55;;;;;;;5.88;3.15;;;14.40;96.70;;;;;;4948869;28;20050;-69
2023/04/22 02:27:22;;;;;;;3.88;2.88;;;14.30;96.70;;;;;;4948443;28;20043;-70
2023/04/22 02:29:51;;;;;;;3.95;2.90;;;14.30;96.70;;;;;;4964620;28;20556;-70
2023/04/22 02:32:19;;;;;;;3.55;2.60;;;14.40;96.70;;;;;;4964623;28;20042;-70
2023/04/22 02:34:50;;;;;;;3.78;2.97;;;14.40;96.70;;;;;;4961575;28;20049;-70
2023/04/22 02:37:21;;;;;;;4.68;2.85;;;14.40;96.70;;;;;;4961952;28;20137;-70
2023/04/22 02:39:50;;;;;;;3.47;2.90;;;14.30;96.70;;;;;;4964838;28;20038;-70
2023/04/22 02:42:18;;;;;;;3.90;2.83;;;14.30;96.70;;;;;;4964463;28;20043;-70
2023/04/22 02:44:46;;;;;;;3.60;2.95;;;14.30;96.70;;;;;;4963459;28;20458;-70
2023/04/22 02:47:15;;;;;;;3.45;2.97;;;14.30;96.70;;;;;;4963598;28;20039;-70
2023/04/22 02:49:43;;;;;;;3.15;2.55;;;14.30;96.70;;;;;;4965853;28;20043;-71
2023/04/22 02:52:13;;;;;;;5.03;3.03;;;14.30;96.70;;;;;;4965289;28;20035;-71
2023/04/22 02:54:42;;;;;;;3.72;2.88;;;14.40;96.70;;;;;;4963439;28;20046;-70
2023/04/22 02:57:10;;;;;;;2.92;2.63;;;14.30;96.70;;;;;;4961186;28;20101;-70
2023/04/22 02:59:38;;;;;;;3.03;2.50;;;14.10;96.70;;;;;;4965139;28;20046;-71
2023/04/22 03:02:10;;;;;;;3.42;2.75;;;14.10;96.70;;;;;;4963568;28;20105;-70
2023/04/22 03:04:56;;;;;;;4.63;2.90;;;14.20;96.70;;;;;;4963397;28;20058;-71
2023/04/22 03:07:26;;;;;;;3.50;2.70;;;14.10;96.70;;;;;;4966131;28;20053;-71
2023/04/22 03:09:55;;;;;;;2.80;2.55;;;14.10;96.70;;;;;;4960202;28;20602;-70
2023/04/22 03:12:24;;;;;;;3.05;2.53;;;14.00;96.70;;;;;;4947493;28;20054;-71
2023/04/22 03:14:52;;;;;;;3.28;2.88;;;14.10;96.70;;;;;;4964750;28;20073;-70
2023/04/22 03:17:24;;;;;;;3.63;2.60;;;14.10;96.70;;;;;;4962468;28;20050;-71
2023/04/22 03:19:53;;;;;;;3.42;2.72;;;14.10;96.70;;;;;;4963012;28;20054;-71
2023/04/22 03:22:21;;;;;;;4.03;2.88;;;14.00;96.70;;;;;;4962993;28;20460;-71
2023/04/22 03:24:54;;;;;;;3.03;2.80;;;14.00;96.70;;;;;;4984179;28;20093;-71
2023/04/22 03:27:26;;;;;;;4.38;2.90;;;14.00;96.70;;;;;;4962842;28;20405;-70
2023/04/22 03:29:55;;;;;;;3.67;2.85;;;14.00;96.70;;;;;;4962676;28;20133;-71
2023/04/22 03:32:23;;;;;;;4.50;2.95;;;14.00;96.70;;;;;;4963139;28;20039;-70
2023/04/22 03:35:08;;;;;;;3.42;3.10;;;13.90;96.70;;;;;;4963859;28;20101;-71
2023/04/22 03:37:36;;;;;;;3.30;2.78;;;13.90;96.70;;;;;;4962419;28;20051;-70
2023/04/22 03:40:09;;;;;;;3.20;2.90;;;13.80;96.70;;;;;;4945755;28;20053;-70
2023/04/22 03:42:40;;;;;;;5.13;3.30;;;13.80;96.70;;;;;;4962756;28;20043;-71
2023/04/22 03:45:09;;;;;;;3.10;2.80;;;13.70;96.70;;;;;;4963134;28;20042;-71
2023/04/22 03:47:43;;;;;;;3.30;2.70;;;13.60;96.70;;;;;;4962868;28;20570;-71
2023/04/22 03:50:21;;;;;;;4.30;2.92;;;13.80;96.70;;;;;;4985036;28;20042;-71
2023/04/22 03:52:52;;;;;;;5.65;2.97;;;13.80;96.70;;;;;;4959679;28;20051;-72
2023/04/22 03:55:22;;;;;;;3.63;2.70;;;13.60;96.70;;;;;;4962560;28;20221;-71
2023/04/22 03:57:53;;;;;;;4.13;3.20;;;13.60;96.70;;;;;;4986857;28;20050;-71
2023/04/22 04:00:21;;;;;;;4.07;3.00;;;13.70;96.70;;;;;;4985979;28;20138;-70
2023/04/22 04:03:02;;;;;;;3.85;3.00;;;13.60;96.70;;;;;;4962789;28;20039;-71
2023/04/22 04:05:31;;;;;;;4.07;3.22;;;13.70;96.70;;;;;;4964039;28;20055;-70
2023/04/22 04:08:00;;;;;;;4.38;3.05;;;13.70;96.70;;;;;;4964036;28;20675;-70
2023/04/22 04:10:30;;;;;;;4.97;3.15;;;13.70;96.70;;;;;;4963905;28;20551;-71
2023/04/22 04:12:59;;;;;;;4.15;3.33;;;13.70;96.70;;;;;;4964484;28;20074;-70
2023/04/22 04:15:35;;;;;;;5.50;2.90;;;13.60;96.70;;;;;;4962771;28;20085;-70
2023/04/22 04:18:04;;;;;;;3.00;2.63;;;13.70;96.70;;;;;;4962394;28;20062;-70
2023/04/22 04:20:33;;;;;;;3.53;2.60;;;13.70;96.70;;;;;;4963695;28;20070;-71
2023/04/22 04:23:02;;;;;;;3.72;3.00;;;13.70;96.70;;;;;;4944688;28;20513;-71
2023/04/22 04:25:36;;;;;;;5.25;2.58;;;13.70;96.70;;;;;;4956003;28;20039;-71
2023/04/22 04:28:10;;;;;;;5.03;2.78;;;13.80;96.70;;;;;;4961452;28;20134;-70
2023/04/22 04:30:40;;;;;;;4.75;2.90;;;13.80;96.70;;;;;;4958433;28;20173;-71
2023/04/22 04:33:08;;;;;;;4.47;2.65;;;13.80;96.70;;;;;;4962427;28;20717;-71
2023/04/22 04:35:40;;;;;;;4.97;3.03;;;13.80;96.70;;;;;;4960379;28;20051;-70
2023/04/22 04:38:11;;;;;;;3.13;2.83;;;13.70;96.70;;;;;;4959380;28;20524;-71
2023/04/22 04:40:42;;;;;;;3.75;2.83;;;13.70;96.70;;;;;;4957198;28;20053;-70
2023/04/22 04:43:19;;;;;;;4.65;2.97;;;13.70;96.70;;;;;;4958822;28;20133;-71
2023/04/22 04:45:53;;;;;;;3.88;2.90;;;13.40;96.70;;;;;;4976160;28;20047;-70
2023/04/22 04:48:34;;;;;;;2.65;2.13;;;13.50;96.70;;;;;;4959765;28;20047;-71
2023/04/22 04:51:07;;;;;;;4.65;3.40;;;13.60;96.70;;;;;;4943115;28;20055;-71
2023/04/22 04:53:41;;;;;;;4.47;2.88;;;13.60;96.70;;;;;;4959300;28;20050;-71
2023/04/22 04:56:11;;;;;;;3.08;2.75;;;13.60;96.70;;;;;;4942356;28;20627;-70
2023/04/22 04:58:41;;;;;;;5.00;3.03;;;13.60;96.70;;;;;;4942270;28;20055;-71
2023/04/22 05:01:15;;;;;;;4.85;3.00;;;13.50;96.70;;;;;;4959328;28;20090;-71
2023/04/22 05:03:45;;;;;;;5.30;2.80;;;13.60;96.70;;;;;;4961424;28;20043;-70
2023/04/22 05:06:17;;;;;;;4.43;2.83;;;13.50;96.70;;;;;;4964276;28;20070;-71
2023/04/22 05:08:49;;;;;;;3.88;3.10;;;13.50;96.70;;;;;;4965184;28;20042;-70
2023/04/22 05:11:20;;;;;;;3.13;2.75;;;13.50;96.70;;;;;;4970753;28;20741;-71
2023/04/22 05:13:50;;;;;;;4.13;2.92;;;13.60;96.70;;;;;;4967388;28;20716;-70
2023/04/22 05:16:26;;;;;;;2.95;2.65;;;13.70;96.70;;;;;;4967336;28;20147;-70
2023/04/22 05:18:55;;;;;;;2.92;2.63;;;13.60;96.70;;;;;;4985752;28;20078;-70
2023/04/22 05:21:23;;;;;;;4.63;2.92;;;13.70;96.70;;;;;;4950515;28;20500;-71
2023/04/22 05:23:51;;;;;;;3.42;2.72;;;13.80;96.70;;;;;;4966018;28;20061;-70
2023/04/22 05:26:21;;;;;;;7.85;2.78;;;13.80;96.70;;;;;;4949682;28;20917;-71
2023/04/22 05:28:50;;;;;;;4.82;3.30;;;13.80;96.70;;;;;;4965672;28;20803;-71
2023/04/22 05:31:19;;;;;;;3.67;2.85;;;13.90;96.70;;;;;;4965650;28;20046;-70
2023/04/22 05:33:47;;;;;;;4.72;3.22;;;13.90;96.70;;;;;;4964781;28;20047;-71
2023/04/22 05:36:16;;;;;;;4.78;3.47;;;13.90;96.70;;;;;;4965075;28;20069;-71
2023/04/22 05:38:46;;;;;;;4.43;3.03;;;13.90;96.70;;;;;;4948995;28;20420;-72
2023/04/22 05:41:15;;;;;;;4.20;3.33;;;13.80;96.70;;;;;;4967539;28;20253;-71
2023/04/22 05:43:45;;;;;;;4.25;3.33;;;13.80;96.70;;;;;;4958771;28;20086;-72
2023/04/22 05:46:17;;;;;;;3.38;2.92;;;14.00;96.70;;;;;;4963740;28;20046;-71
2023/04/22 05:48:48;;;;;;;5.20;3.58;;;14.00;96.70;;;;;;4964235;28;20411;-71
2023/04/22 05:51:45;;;;;;;5.25;3.53;;;13.90;96.70;;;;;;4963188;28;20054;-71
2023/04/22 05:54:17;;;;;;;4.43;2.88;;;13.80;96.70;;;;;;4964050;28;20462;-70
2023/04/22 05:56:45;;;;;;;3.67;3.10;;;13.90;96.70;;;;;;4948583;28;20054;-71
2023/04/22 05:59:15;;;;;;;4.60;3.53;;;13.90;96.70;;;;;;4947417;28;20560;-72
2023/04/22 06:01:45;;;;;;;4.60;3.38;;;14.00;96.70;;;;;;4964152;28;20049;-72
2023/04/22 06:04:18;;;;;;;5.07;3.00;;;13.80;96.70;;;;;;4949487;28;20065;-71
2023/04/22 06:06:48;;;;;;;4.28;3.40;;;13.90;96.70;;;;;;4963728;28;20057;-72
2023/04/22 06:09:16;;;;;;;5.32;3.28;;;14.00;96.70;;;;;;4963320;28;20081;-71
2023/04/22 06:11:45;;;;;;;4.10;3.33;;;14.00;96.70;;;;;;4963941;28;20050;-71
2023/04/22 06:14:15;;;;;;;4.78;3.45;;;14.10;96.70;;;;;;4965670;28;20039;-71
2023/04/22 06:16:45;;;;;;;3.78;3.25;;;14.20;96.70;;;;;;4962022;28;20125;-70
2023/04/22 06:19:14;;;;;;;4.75;4.00;;;14.20;96.70;;;;;;4963933;28;20505;-72
2023/04/22 06:21:42;;;;;;;6.00;3.58;;;14.30;96.70;;;;;;4955993;28;20050;-72
2023/04/22 06:24:10;;;;;;;6.15;3.78;;;14.40;96.70;;;;;;4960275;28;20050;-71
2023/04/22 06:26:42;;;;;;;4.68;3.58;;;14.30;96.70;;;;;;4960026;28;20094;-71
2023/04/22 06:29:10;;;;;;;6.18;3.25;;;14.40;96.70;;;;;;4958392;28;20049;-72
2023/04/22 06:31:41;;;;;;;4.25;3.33;;;14.40;96.70;;;;;;4955236;28;20058;-72
2023/04/22 06:34:09;;;;;;;4.25;3.58;;;14.50;96.70;;;;;;4958574;28;20046;-73
2023/04/22 06:36:38;;;;;;;5.20;3.80;;;14.50;96.70;;;;;;4958787;28;20042;-73
2023/04/22 06:39:09;;;;;;;5.15;3.65;;;14.50;96.70;;;;;;4960032;28;20462;-73
2023/04/22 06:41:48;;;;;;;6.40;4.63;;;14.50;96.70;;;;;;4961526;28;20180;-71
2023/04/22 06:44:35;;;;;;;5.00;3.75;;;14.50;96.70;;;;;;4963676;28;20070;-72
2023/04/22 06:47:36;;;;;;;6.03;4.57;;;14.60;96.70;;;;;;4969883;28;20422;-71
2023/04/22 06:50:09;;;;;;;5.25;4.75;;;14.60;96.70;;;;;;4938082;28;20067;-72
2023/04/22 06:52:45;;;;;;;16.83;13.98;;;14.60;96.70;;;;;;4957301;28;20050;-70
2023/04/22 06:55:13;;;;;;;10.02;8.68;;;14.70;96.70;;;;;;4969116;28;20049;-71
2023/04/22 06:57:41;;;;;;;12.98;10.18;;;14.70;96.70;;;;;;4954266;28;20054;-73
2023/04/22 07:00:09;;;;;;;10.60;8.32;;;14.80;96.70;;;;;;4973244;28;20053;-71
2023/04/22 07:02:40;;;;;;;9.27;8.23;;;14.90;96.70;;;;;;4955910;28;20045;-72
2023/04/22 07:05:09;;;;;;;9.95;8.15;;;14.90;96.70;;;;;;4969014;28;20476;-72
2023/04/22 07:07:37;;;;;;;11.50;8.85;;;14.90;96.70;;;;;;4959648;28;20058;-70
2023/04/22 07:10:07;;;;;;;10.85;9.30;;;15.00;96.70;;;;;;4961331;28;20054;-71
2023/04/22 07:12:44;;;;;;;10.90;8.30;;;15.00;96.70;;;;;;4974201;28;20046;-72
2023/04/22 07:15:11;;;;;;;12.18;9.43;;;15.00;96.70;;;;;;4969756;28;20055;-72
2023/04/22 07:17:41;;;;;;;11.70;9.57;;;15.10;96.70;;;;;;4969333;28;20042;-71
2023/04/22 07:20:15;;;;;;;11.05;9.00;;;15.10;96.70;;;;;;4974072;28;20053;-71
2023/04/22 07:22:43;;;;;;;10.55;8.63;;;15.20;96.70;;;;;;4966346;28;20058;-72
2023/04/22 07:25:10;;;;;;;11.43;8.63;;;15.40;96.70;;;;;;4956915;28;20035;-71
2023/04/22 07:27:38;;;;;;;9.55;7.72;;;15.50;96.70;;;;;;4954940;28;20070;-72
2023/04/22 07:30:07;;;;;;;9.77;7.85;;;15.60;96.70;;;;;;4953990;28;20086;-71
2023/04/22 07:32:35;;;;;;;10.27;7.55;;;15.70;96.70;;;;;;4959321;28;20074;-72
2023/04/22 07:35:06;;;;;;;7.50;6.72;;;15.70;96.70;;;;;;4953581;28;20047;-71
2023/04/22 07:37:34;;;;;;;9.70;6.97;;;15.90;96.70;;;;;;4954368;28;20137;-71
2023/04/22 07:40:02;;;;;;;7.55;6.30;;;15.90;96.70;;;;;;4959501;28;20047;-71
2023/04/22 07:42:30;;;;;;;9.57;6.75;;;16.00;96.70;;;;;;4959868;28;20066;-70
2023/04/22 07:44:57;;;;;;;6.53;5.82;;;16.10;96.70;;;;;;4952118;28;20043;-70
2023/04/22 07:47:26;;;;;;;6.60;5.40;;;16.20;96.70;;;;;;4953049;28;20073;-72
2023/04/22 07:49:55;;;;;;;8.02;5.93;;;16.20;96.70;;;;;;4953483;28;20140;-70
2023/04/22 07:52:24;;;;;;;5.47;4.97;;;16.30;96.70;;;;;;4957659;28;20050;-70
2023/04/22 07:54:51;;;;;;;6.65;5.55;;;16.30;96.70;;;;;;4956835;28;20049;-70
2023/04/22 07:57:21;;;;;;;7.38;5.03;;;16.30;96.70;;;;;;4957478;28;20070;-70
2023/04/22 07:59:49;;;;;;;8.18;5.45;;;16.40;96.70;;;;;;4956993;28;20547;-71
2023/04/22 08:02:17;;;;;;;6.95;5.30;;;16.50;96.70;;;;;;4959537;28;20740;-71
2023/04/22 08:04:45;;;;;;;6.03;5.22;;;16.60;96.70;;;;;;4957559;28;20066;-70
2023/04/22 08:07:14;;;;;;;7.55;5.75;;;16.70;96.70;;;;;;4958314;28;21097;-71
2023/04/22 08:10:01;;;;;;;8.55;5.63;;;16.80;96.70;;;;;;4958318;28;20466;-71
2023/04/22 08:12:29;;;;;;;6.32;4.80;;;16.80;96.70;;;;;;4962117;28;20139;-71
2023/04/22 08:14:57;;;;;;;34.80;29.05;;;16.90;96.70;;;;;;4962755;28;20121;-70
2023/04/22 08:17:25;;;;;;;8.38;7.57;;;17.00;96.70;;;;;;4962869;28;20097;-71
2023/04/22 08:19:53;;;;;;;7.72;5.82;;;17.10;96.70;;;;;;4964133;28;20126;-71
2023/04/22 08:22:22;;;;;;;8.85;6.05;;;17.20;96.70;;;;;;4963209;28;20035;-70
2023/04/22 08:24:50;;;;;;;7.10;5.70;;;17.30;96.70;;;;;;4963609;28;20051;-71
2023/04/22 08:27:21;;;;;;;7.28;5.78;;;17.40;96.70;;;;;;4962827;28;20066;-73
2023/04/22 08:29:49;;;;;;;9.20;6.35;;;17.40;96.70;;;;;;4952648;28;20126;-71
2023/04/22 08:32:18;;;;;;;7.50;5.93;;;17.40;96.70;;;;;;4956127;28;20065;-70
2023/04/22 08:34:46;;;;;;;7.38;5.60;;;17.40;96.70;;;;;;4957722;28;20042;-71
2023/04/22 08:37:18;;;;;;;7.55;4.72;;;17.50;96.70;;;;;;4960860;28;20057;-70
2023/04/22 08:39:46;;;;;;;5.15;4.60;;;17.70;96.70;;;;;;4957054;28;20093;-72
2023/04/22 08:42:15;;;;;;;6.57;4.80;;;17.80;96.70;;;;;;4969169;28;20709;-71
2023/04/22 08:44:45;;;;;;;5.95;4.93;;;17.90;96.70;;;;;;4954613;28;20485;-71
2023/04/22 08:47:14;;;;;;;5.82;4.93;;;18.10;96.70;;;;;;4956928;28;20125;-70
2023/04/22 08:49:43;;;;;;;7.57;5.53;;;18.20;96.70;;;;;;4956468;28;20039;-71
2023/04/22 08:52:14;;;;;;;7.22;5.65;;;18.30;96.70;;;;;;4961915;28;20066;-71
2023/04/22 08:54:41;;;;;;;6.93;6.22;;;18.20;96.70;;;;;;4963773;28;20043;-71
2023/04/22 08:57:10;;;;;;;6.95;6.03;;;18.20;96.70;;;;;;4962576;28;20157;-71
2023/04/22 08:59:38;;;;;;;6.80;6.10;;;18.30;96.70;;;;;;4961626;28;20416;-72
2023/04/22 09:02:16;;;;;;;7.78;5.90;;;18.30;96.70;;;;;;4962617;28;20497;-71
2023/04/22 09:04:45;;;;;;;;;;;18.30;96.70;;;;;;4963908;28;20043;-71
2023/04/22 09:07:20;;;;;;;6.93;4.72;;;18.50;96.70;;;;;;4955248;28;19933;-72
2023/04/22 09:09:48;;;;;;;12.60;8.73;;;18.70;96.70;;;;;;4971530;28;20046;-71
2023/04/22 09:12:17;;;;;;;7.00;6.15;;;18.90;96.70;;;;;;4964822;28;20039;-72
2023/04/22 09:14:46;;;;;;;7.20;5.75;;;18.70;96.70;;;;;;4965635;28;20102;-73
2023/04/22 09:17:17;;;;;;;5.65;5.03;;;18.70;96.70;;;;;;4958865;28;20050;-74
2023/04/22 09:19:45;;;;;;;6.80;5.03;;;18.60;96.70;;;;;;4957088;28;21845;-75
2023/04/22 09:22:14;;;;;;;5.25;4.75;;;18.60;96.70;;;;;;4954690;28;20046;-75
2023/04/22 09:24:47;;;;;;;7.72;5.40;;;18.70;96.70;;;;;;4958799;28;20045;-75
2023/04/22 09:27:16;;;;;;;5.60;5.00;;;18.90;96.70;;;;;;4953619;28;20043;-75
2023/04/22 09:29:48;;;;;;;6.13;5.50;;;18.90;96.70;;;;;;4973267;28;20137;-74
2023/04/22 09:32:18;;;;;;;7.43;5.45;;;19.00;96.70;;;;;;4972922;28;20054;-75
2023/04/22 09:34:50;;;;;;;6.00;5.10;;;19.10;96.70;;;;;;4954031;28;20086;-74
2023/04/22 09:37:24;;;;;;;4.53;4.03;;;19.30;96.70;;;;;;4953941;28;20047;-73
2023/04/22 09:40:03;;;;;;;5.07;4.32;;;19.40;96.70;;;;;;4955844;28;20054;-73
2023/04/22 09:42:31;;;;;;;4.03;3.60;;;19.50;96.70;;;;;;4955999;28;20513;-75
2023/04/22 09:44:59;;;;;;;5.63;4.22;;;19.60;96.70;;;;;;4957404;28;20101;-74
2023/04/22 09:47:36;;;;;;;4.68;4.28;;;19.70;96.70;;;;;;4956858;28;20053;-74
2023/04/22 09:50:05;;;;;;;5.10;4.25;;;19.60;96.70;;;;;;4956741;28;20075;-73
2023/04/22 09:52:33;;;;;;;4.85;4.13;;;19.60;96.70;;;;;;4962308;28;20057;-74
2023/04/22 09:55:01;;;;;;;3.80;3.30;;;19.50;96.70;;;;;;4973483;28;20054;-73
2023/04/22 09:57:28;;;;;;;6.25;4.22;;;19.40;96.70;;;;;;4945409;28;20524;-74
2023/04/22 09:59:58;;;;;;;5.45;4.22;;;19.40;96.70;;;;;;4971540;28;20104;-72
2023/04/22 10:02:28;;;;;;;4.65;4.10;;;19.50;96.70;;;;;;4954207;28;20050;-73
2023/04/22 10:04:59;;;;;;;4.65;3.25;;;19.70;96.70;;;;;;4963703;28;20500;-73
2023/04/22 10:07:30;;;;;;;3.45;2.90;;;20.00;96.70;;;;;;4973837;28;20050;-73
2023/04/22 10:09:58;;;;;;;3.28;2.92;;;20.40;96.70;;;;;;4965533;28;20047;-73
2023/04/22 10:12:27;;;;;;;2.92;2.63;;;20.60;96.70;;;;;;4965032;28;20049;-73
2023/04/22 10:15:02;;;;;;;3.25;2.60;;;20.70;96.70;;;;;;4963151;28;20043;-72
2023/04/22 10:17:32;;;;;;;4.57;3.00;;;20.80;96.70;;;;;;4963836;28;20850;-72
2023/04/22 10:20:06;;;;;;;2.78;2.47;;;20.90;96.70;;;;;;4965169;28;20117;-72
2023/04/22 10:22:34;;;;;;;3.70;2.38;;;21.10;96.70;;;;;;4965457;28;20053;-72
2023/04/22 10:25:02;;;;;;;3.00;2.65;;;21.10;96.70;;;;;;4965750;28;20090;-72
2023/04/22 10:27:30;;;;;;;2.95;2.35;;;21.20;96.70;;;;;;4964135;28;20497;-72
2023/04/22 10:29:59;;;;;;;2.22;2.03;;;21.30;96.70;;;;;;4964157;28;20082;-73
2023/04/22 10:32:27;;;;;;;2.95;2.00;;;21.40;96.70;;;;;;4965513;28;20070;-73
2023/04/22 10:35:15;;;;;;;2.13;1.92;;;21.60;96.70;;;;;;4966048;28;20047;-72
2023/04/22 10:37:45;;;;;;;6.55;4.05;;;21.70;96.70;;;;;;4972644;28;20077;-72
2023/04/22 10:40:16;;;;;;;4.20;2.47;;;21.80;96.70;;;;;;4962883;28;20046;-73
2023/04/22 10:42:49;;;;;;;3.10;2.08;;;21.90;96.70;;;;;;4960381;28;20464;-72
2023/04/22 10:45:18;;;;;;;2.38;2.17;;;22.00;96.70;;;;;;4963019;28;20759;-73
2023/04/22 10:47:46;;;;;;;2.50;2.00;;;22.10;96.70;;;;;;4960107;28;20039;-72
2023/04/22 10:50:22;;;;;;;4.05;2.53;;;22.20;96.70;;;;;;4958467;28;20042;-73
2023/04/22 10:52:54;;;;;;;3.55;2.20;;;22.20;96.70;;;;;;4977219;28;20138;-73
2023/04/22 10:55:23;;;;;;;3.40;2.47;;;22.10;96.70;;;;;;4965808;28;20047;-73
2023/04/22 10:57:52;;;;;;;3.05;2.70;;;22.30;96.70;;;;;;4960509;28;20043;-73
2023/04/22 11:00:29;;;;;;;2.20;2.00;;;22.30;96.70;;;;;;4958544;28;20047;-73
2023/04/22 11:03:15;;;;;;;2.00;1.80;;;22.30;96.70;;;;;;4959785;28;20070;-73
2023/04/22 11:05:45;;;;;;;3.70;1.67;;;22.30;96.70;;;;;;4958715;28;20055;-75
2023/04/22 11:08:19;;;;;;;6.50;2.22;;;22.30;96.70;;;;;;4943208;28;20058;-73
2023/04/22 11:10:48;;;;;;;2.20;2.00;;;22.50;96.70;;;;;;4957162;28;20042;-74
2023/04/22 11:13:18;;;;;;;2.13;1.80;;;22.40;96.70;;;;;;4957308;28;20047;-72
2023/04/22 11:15:47;;;;;;;2.42;2.00;;;22.30;96.70;;;;;;4963516;28;20106;-73
2023/04/22 11:18:20;;;;;;;2.50;1.83;;;22.30;96.70;;;;;;4941494;28;20461;-73
2023/04/22 11:20:52;;;;;;;2.20;1.90;;;22.40;96.70;;;;;;4958719;28;20051;-72
2023/04/22 11:23:23;;;;;;;3.33;1.48;;;22.50;96.70;;;;;;4957801;28;21809;-73
2023/04/22 11:25:56;;;;;;;3.50;1.92;;;22.70;96.70;;;;;;4959132;28;20524;-75
2023/04/22 11:28:24;;;;;;;3.42;1.50;;;22.90;96.70;;;;;;4957575;28;20544;-75
2023/04/22 11:30:59;;;;;;;3.25;2.22;;;23.00;96.70;;;;;;4961598;28;20051;-74
2023/04/22 11:33:28;;;;;;;2.90;2.00;;;23.20;96.70;;;;;;4958419;28;20055;-75
2023/04/22 11:35:57;;;;;;;3.63;2.15;;;23.20;96.70;;;;;;4961445;28;20055;-74
2023/04/22 11:38:25;;;;;;;2.88;2.08;;;23.60;96.70;;;;;;4959074;28;20453;-74
2023/04/22 11:40:57;;;;;;;3.53;1.50;;;23.90;96.70;;;;;;4959831;28;20072;-73
2023/04/22 11:43:26;;;;;;;2.75;1.38;;;24.10;96.70;;;;;;4957244;28;20118;-72
2023/04/22 11:45:56;;;;;;;1.75;1.45;;;24.00;96.70;;;;;;4957955;28;20043;-72
2023/04/22 11:48:27;;;;;;;2.78;1.70;;;24.00;96.70;;;;;;4953163;28;20047;-72
2023/04/22 11:51:10;;;;;;;2.85;1.95;;;24.10;96.70;;;;;;4960240;28;20054;-73
2023/04/22 11:53:40;;;;;;;1.92;1.52;;;23.90;96.70;;;;;;4957481;28;20057;-73
2023/04/22 11:56:07;;;;;;;5.50;4.85;;;24.00;96.70;;;;;;4957236;28;20050;-73
2023/04/22 11:58:39;;;;;;;2.88;1.80;;;24.20;96.70;;;;;;4960809;28;20050;-73
2023/04/22 12:01:12;;;;;;;3.13;2.03;;;24.50;96.70;;;;;;4958237;28;20500;-73
2023/04/22 12:03:40;;;;;;;3.33;1.58;;;24.50;96.70;;;;;;4960167;28;20047;-72
2023/04/22 12:06:10;;;;;;;2.95;1.40;;;24.40;96.70;;;;;;4956610;28;20046;-72
2023/04/22 12:08:41;;;;;;;3.22;1.60;;;24.10;96.70;;;;;;4961803;28;20042;-72
2023/04/22 12:11:11;;;;;;;1.63;1.23;;;24.10;96.70;;;;;;4957853;28;20042;-72
2023/04/22 12:13:42;;;;;;;1.75;1.50;;;24.30;96.70;;;;;;4956128;28;20122;-71
2023/04/22 12:16:11;;;;;;;1.80;1.50;;;24.30;96.70;;;;;;4956098;28;20195;-72
2023/04/22 12:18:46;;;;;;;1.58;1.48;;;24.50;96.70;;;;;;4962917;28;20043;-72
2023/04/22 12:21:18;;;;;;;2.85;1.50;;;24.50;96.70;;;;;;4960440;28;20125;-72
2023/04/22 12:23:48;;;;;;;2.28;1.45;;;24.70;96.70;;;;;;4963510;28;20515;-73
2023/04/22 12:26:17;;;;;;;1.40;1.27;;;24.70;96.70;;;;;;4962532;28;20590;-73
2023/04/22 12:28:46;;;;;;;1.42;1.20;;;24.70;96.70;;;;;;4961611;28;20805;-72
2023/04/22 12:31:15;;;;;;;3.90;1.20;;;24.70;96.70;;;;;;4963369;28;20038;-73
2023/04/22 12:33:45;;;;;;;2.38;1.92;;;24.80;96.70;;;;;;4961481;28;20839;-72
2023/04/22 12:36:15;;;;;;;2.47;2.28;;;25.00;96.70;;;;;;4956959;28;20667;-72
2023/04/22 12:38:43;;;;;;;1.95;1.20;;;25.20;96.70;;;;;;4961257;28;20051;-73
2023/04/22 12:41:11;;;;;;;2.92;1.58;;;25.20;96.70;;;;;;4968030;28;20453;-72
2023/04/22 12:43:40;;;;;;;1.50;1.00;;;25.20;96.70;;;;;;4948405;28;20117;-73
2023/04/22 12:46:09;;;;;;;1.38;1.00;;;25.20;96.70;;;;;;4963576;28;20066;-72
2023/04/22 12:48:37;;;;;;;2.80;1.58;;;25.10;96.70;;;;;;4943469;28;20054;-74
2023/04/22 12:51:07;;;;;;;2.80;1.30;;;25.20;96.70;;;;;;4954726;28;20409;-74
2023/04/22 12:53:37;;;;;;;1.52;1.10;;;25.20;96.70;;;;;;4954561;28;20604;-74
2023/04/22 12:56:05;;;;;;;2.25;1.55;;;25.20;96.70;;;;;;4958296;28;20543;-74
2023/04/22 12:58:33;;;;;;;2.13;1.40;;;25.30;96.70;;;;;;4958867;28;20094;-73
2023/04/22 13:01:01;;;;;;;6.07;3.65;;;25.50;96.70;;;;;;4943197;28;20053;-73